sensor_id;sensor_type;location;lat;lon;timestamp;pressure;altitude;pressure_sealevel;temperature;humidity
10310;BME280;5200;43.236;27.986;2023-02-11T00:00:57;101964.28;;;-5.30;84.54
10310;BME280;5200;43.236;27.986;2023-02-11T00:03:24;101928.28;;;-5.45;83.67
10310;BME280;5200;43.236;27.986;2023-02-11T00:06:00;101964.38;;;-5.16;82.27
10310;BME280;5200;43.236;27.986;2023-02-11T00:08:27;101958.38;;;-5.15;80.24
10310;BME280;5200;43.236;27.986;2023-02-11T00:10:55;101953.22;;;-5.21;79.46
10310;BME280;5200;43.236;27.986;2023-02-11T00:13:23;101935.19;;;-5.32;79.39
10310;BME280;5200;43.236;27.986;2023-02-11T00:15:50;101971.22;;;-5.17;80.30
10310;BME280;5200;43.236;27.986;2023-02-11T00:18:17;101924.91;;;-5.38;80.07
10310;BME280;5200;43.236;27.986;2023-02-11T00:20:44;101966.09;;;-5.17;80.21
10310;BME280;5200;43.236;27.986;2023-02-11T00:23:13;101965.22;;;-5.19;80.39
10310;BME280;5200;43.236;27.986;2023-02-11T00:25:40;101960.91;;;-5.20;79.94
10310;BME280;5200;43.236;27.986;2023-02-11T00:28:08;101930.81;;;-5.47;80.05
10310;BME280;5200;43.236;27.986;2023-02-11T00:30:35;101954.00;;;-5.33;79.54
10310;BME280;5200;43.236;27.986;2023-02-11T00:33:02;101947.13;;;-5.34;79.92
10310;BME280;5200;43.236;27.986;2023-02-11T00:35:29;101943.69;;;-5.39;79.64
10310;BME280;5200;43.236;27.986;2023-02-11T00:37:56;101941.91;;;-5.49;79.64
10310;BME280;5200;43.236;27.986;2023-02-11T00:40:24;101900.72;;;-5.68;79.85
10310;BME280;5200;43.236;27.986;2023-02-11T00:42:51;101955.66;;;-5.40;80.18
10310;BME280;5200;43.236;27.986;2023-02-11T00:45:17;101960.81;;;-5.38;80.10
10310;BME280;5200;43.236;27.986;2023-02-11T00:47:45;101953.97;;;-5.41;80.08
10310;BME280;5200;43.236;27.986;2023-02-11T00:50:12;101887.03;;;-5.70;80.50
10310;BME280;5200;43.236;27.986;2023-02-11T00:52:39;101910.22;;;-5.59;80.64
10310;BME280;5200;43.236;27.986;2023-02-11T00:55:06;101948.00;;;-5.38;80.58
10310;BME280;5200;43.236;27.986;2023-02-11T00:57:34;101902.44;;;-5.67;81.24
10310;BME280;5200;43.236;27.986;2023-02-11T01:00:02;101953.94;;;-5.45;81.50
10310;BME280;5200;43.236;27.986;2023-02-11T01:02:29;101949.63;;;-5.43;81.93
10310;BME280;5200;43.236;27.986;2023-02-11T01:04:55;101910.16;;;-5.62;81.95
10310;BME280;5200;43.236;27.986;2023-02-11T01:07:23;101938.53;;;-5.45;81.49
10310;BME280;5200;43.236;27.986;2023-02-11T01:09:50;101906.69;;;-5.72;83.01
10310;BME280;5200;43.236;27.986;2023-02-11T01:12:17;101887.81;;;-5.82;82.96
10310;BME280;5200;43.236;27.986;2023-02-11T01:14:45;101905.94;;;-5.59;85.22
10310;BME280;5200;43.236;27.986;2023-02-11T01:17:12;101928.31;;;-5.36;85.99
10310;BME280;5200;43.236;27.986;2023-02-11T01:19:39;101936.91;;;-5.29;85.97
10310;BME280;5200;43.236;27.986;2023-02-11T01:22:06;101936.09;;;-5.25;86.11
10310;BME280;5200;43.236;27.986;2023-02-11T01:24:33;101900.03;;;-5.44;86.12
10310;BME280;5200;43.236;27.986;2023-02-11T01:26:59;101927.53;;;-5.29;86.59
10310;BME280;5200;43.236;27.986;2023-02-11T01:29:26;101888.03;;;-5.53;88.87
10310;BME280;5200;43.236;27.986;2023-02-11T01:31:54;101891.47;;;-5.47;88.69
10310;BME280;5200;43.236;27.986;2023-02-11T01:34:21;101918.09;;;-5.30;88.74
10310;BME280;5200;43.236;27.986;2023-02-11T01:36:48;101919.78;;;-5.35;89.00
10310;BME280;5200;43.236;27.986;2023-02-11T01:39:15;101888.78;;;-5.63;89.15
10310;BME280;5200;43.236;27.986;2023-02-11T01:41:42;101916.09;;;-5.69;92.12
10310;BME280;5200;43.236;27.986;2023-02-11T01:44:27;101880.91;;;-5.92;92.64
10310;BME280;5200;43.236;27.986;2023-02-11T01:46:55;101892.84;;;-5.96;92.90
10310;BME280;5200;43.236;27.986;2023-02-11T01:49:26;101894.66;;;-5.79;93.57
10310;BME280;5200;43.236;27.986;2023-02-11T01:51:57;101919.56;;;-5.63;93.82
10310;BME280;5200;43.236;27.986;2023-02-11T01:54:30;101926.44;;;-5.62;93.78
10310;BME280;5200;43.236;27.986;2023-02-11T01:57:17;101892.00;;;-5.88;93.44
10310;BME280;5200;43.236;27.986;2023-02-11T01:59:55;101909.97;;;-5.87;94.17
10310;BME280;5200;43.236;27.986;2023-02-11T02:02:32;101920.34;;;-5.75;94.27
10310;BME280;5200;43.236;27.986;2023-02-11T02:05:05;101924.63;;;-5.75;94.06
10310;BME280;5200;43.236;27.986;2023-02-11T02:07:37;101924.63;;;-5.75;94.12
10310;BME280;5200;43.236;27.986;2023-02-11T02:10:11;101924.63;;;-5.72;94.51
10310;BME280;5200;43.236;27.986;2023-02-11T02:12:39;101871.41;;;-6.05;94.16
10310;BME280;5200;43.236;27.986;2023-02-11T02:15:26;101876.56;;;-6.01;94.72
10310;BME280;5200;43.236;27.986;2023-02-11T02:18:25;101910.06;;;-5.78;94.18
10310;BME280;5200;43.236;27.986;2023-02-11T02:21:21;101906.59;;;-5.81;94.41
10310;BME280;5200;43.236;27.986;2023-02-11T02:27:31;101929.53;;;-6.00;96.25
10310;BME280;5200;43.236;27.986;2023-02-11T02:30:14;101926.06;;;-6.08;97.94
10310;BME280;5200;43.236;27.986;2023-02-11T02:33:00;101927.69;;;-6.14;98.08
10310;BME280;5200;43.236;27.986;2023-02-11T02:35:39;101909.69;;;-6.25;98.60
10310;BME280;5200;43.236;27.986;2023-02-11T02:38:12;101929.44;;;-6.13;98.63
10310;BME280;5200;43.236;27.986;2023-02-11T02:40:44;101932.88;;;-6.10;98.30
10310;BME280;5200;43.236;27.986;2023-02-11T02:43:14;101933.69;;;-6.14;97.35
10310;BME280;5200;43.236;27.986;2023-02-11T02:45:42;101927.72;;;-6.16;97.15
10310;BME280;5200;43.236;27.986;2023-02-11T02:48:24;101895.81;;;-6.43;97.88
10310;BME280;5200;43.236;27.986;2023-02-11T02:50:58;101936.16;;;-6.22;97.42
10310;BME280;5200;43.236;27.986;2023-02-11T02:53:40;101899.22;;;-6.45;97.21
10310;BME280;5200;43.236;27.986;2023-02-11T02:56:12;101906.91;;;-6.44;96.99
10310;BME280;5200;43.236;27.986;2023-02-11T02:59:12;101902.63;;;-6.46;96.58
10310;BME280;5200;43.236;27.986;2023-02-11T03:01:52;101900.91;;;-6.46;96.05
10310;BME280;5200;43.236;27.986;2023-02-11T03:04:28;101934.47;;;-6.23;96.09
10310;BME280;5200;43.236;27.986;2023-02-11T03:06:59;101913.81;;;-6.36;95.76
10310;BME280;5200;43.236;27.986;2023-02-11T03:09:32;101883.63;;;-6.67;96.41
10310;BME280;5200;43.236;27.986;2023-02-11T03:12:03;101925.81;;;-6.34;95.77
10310;BME280;5200;43.236;27.986;2023-02-11T03:14:32;101924.03;;;-6.41;95.92
10310;BME280;5200;43.236;27.986;2023-02-11T03:17:03;101901.59;;;-6.62;95.28
10310;BME280;5200;43.236;27.986;2023-02-11T03:19:35;101891.25;;;-6.68;95.24
10310;BME280;5200;43.236;27.986;2023-02-11T03:22:07;101911.84;;;-6.59;94.79
10310;BME280;5200;43.236;27.986;2023-02-11T03:24:37;101942.72;;;-6.47;94.77
10310;BME280;5200;43.236;27.986;2023-02-11T03:27:09;101879.13;;;-6.85;94.24
10310;BME280;5200;43.236;27.986;2023-02-11T03:29:43;101916.97;;;-6.59;93.98
10310;BME280;5200;43.236;27.986;2023-02-11T03:32:19;101892.13;;;-6.69;93.53
10310;BME280;5200;43.236;27.986;2023-02-11T03:34:52;101896.44;;;-6.65;93.21
10310;BME280;5200;43.236;27.986;2023-02-11T03:37:24;101885.34;;;-6.64;92.96
10310;BME280;5200;43.236;27.986;2023-02-11T03:39:56;101886.19;;;-6.65;92.44
10310;BME280;5200;43.236;27.986;2023-02-11T03:42:29;101887.78;;;-6.76;92.21
10310;BME280;5200;43.236;27.986;2023-02-11T03:45:02;101885.31;;;-6.66;91.29
10310;BME280;5200;43.236;27.986;2023-02-11T03:47:32;101915.56;;;-6.34;91.09
10310;BME280;5200;43.236;27.986;2023-02-11T03:50:05;101883.75;;;-6.51;89.88
10310;BME280;5200;43.236;27.986;2023-02-11T03:52:34;101918.94;;;-6.36;90.52
10310;BME280;5200;43.236;27.986;2023-02-11T03:55:06;101917.22;;;-6.38;89.98
10310;BME280;5200;43.236;27.986;2023-02-11T03:57:34;101874.31;;;-6.60;89.40
10310;BME280;5200;43.236;27.986;2023-02-11T04:00:01;101906.97;;;-6.39;89.25
10310;BME280;5200;43.236;27.986;2023-02-11T04:02:29;101914.63;;;-6.41;88.77
10310;BME280;5200;43.236;27.986;2023-02-11T04:04:57;101869.09;;;-6.66;89.31
10310;BME280;5200;43.236;27.986;2023-02-11T04:07:25;101852.81;;;-6.73;89.17
10310;BME280;5200;43.236;27.986;2023-02-11T04:09:52;101905.97;;;-6.53;89.01
10310;BME280;5200;43.236;27.986;2023-02-11T04:12:19;101899.84;;;-6.63;89.20
10310;BME280;5200;43.236;27.986;2023-02-11T04:14:46;101893.84;;;-6.67;89.21
10310;BME280;5200;43.236;27.986;2023-02-11T04:17:13;101888.75;;;-6.65;89.50
10310;BME280;5200;43.236;27.986;2023-02-11T04:19:40;101856.16;;;-6.80;88.52
10310;BME280;5200;43.236;27.986;2023-02-11T04:22:07;101893.94;;;-6.59;89.15
10310;BME280;5200;43.236;27.986;2023-02-11T04:24:35;101899.84;;;-6.63;88.28
10310;BME280;5200;43.236;27.986;2023-02-11T04:27:02;101868.97;;;-6.78;89.06
10310;BME280;5200;43.236;27.986;2023-02-11T04:29:29;101898.16;;;-6.61;88.76
10310;BME280;5200;43.236;27.986;2023-02-11T04:31:56;101864.72;;;-6.79;88.51
10310;BME280;5200;43.236;27.986;2023-02-11T04:34:23;101865.56;;;-6.79;88.22
10310;BME280;5200;43.236;27.986;2023-02-11T04:36:50;101855.19;;;-6.90;88.39
10310;BME280;5200;43.236;27.986;2023-02-11T04:39:17;101870.88;;;-6.62;87.52
10310;BME280;5200;43.236;27.986;2023-02-11T04:41:45;101881.09;;;-6.62;88.04
10310;BME280;5200;43.236;27.986;2023-02-11T04:44:12;101844.97;;;-6.87;87.73
10310;BME280;5200;43.236;27.986;2023-02-11T04:46:39;101861.25;;;-6.83;87.91
10310;BME280;5200;43.236;27.986;2023-02-11T04:49:06;101881.78;;;-6.78;87.88
10310;BME280;5200;43.236;27.986;2023-02-11T04:51:32;101850.81;;;-7.00;88.33
10310;BME280;5200;43.236;27.986;2023-02-11T04:53:59;101867.41;;;-6.67;87.89
10310;BME280;5200;43.236;27.986;2023-02-11T04:56:26;101877.78;;;-6.52;87.41
10310;BME280;5200;43.236;27.986;2023-02-11T04:58:54;101852.03;;;-6.67;87.14
10310;BME280;5200;43.236;27.986;2023-02-11T05:01:21;101848.63;;;-6.66;86.02
10310;BME280;5200;43.236;27.986;2023-02-11T05:03:48;101850.31;;;-6.68;86.70
10310;BME280;5200;43.236;27.986;2023-02-11T05:06:15;101858.94;;;-6.60;86.15
10310;BME280;5200;43.236;27.986;2023-02-11T05:08:42;101879.53;;;-6.48;86.26
10310;BME280;5200;43.236;27.986;2023-02-11T05:11:14;101876.09;;;-6.50;86.99
10310;BME280;5200;43.236;27.986;2023-02-11T05:13:41;101841.63;;;-6.83;87.18
10310;BME280;5200;43.236;27.986;2023-02-11T05:16:09;101870.88;;;-6.62;88.31
10310;BME280;5200;43.236;27.986;2023-02-11T05:18:37;101864.84;;;-6.67;88.26
10310;BME280;5200;43.236;27.986;2023-02-11T05:21:05;101869.28;;;-6.51;89.19
10310;BME280;5200;43.236;27.986;2023-02-11T05:23:32;101851.38;;;-6.48;88.65
10310;BME280;5200;43.236;27.986;2023-02-11T05:25:59;101853.25;;;-6.28;88.14
10310;BME280;5200;43.236;27.986;2023-02-11T05:28:26;101860.25;;;-6.10;88.01
10310;BME280;5200;43.236;27.986;2023-02-11T05:30:53;101841.59;;;-5.96;87.12
10310;BME280;5200;43.236;27.986;2023-02-11T05:33:21;101876.09;;;-5.47;84.58
10310;BME280;5200;43.236;27.986;2023-02-11T05:35:48;101833.22;;;-5.62;81.10
10310;BME280;5200;43.236;27.986;2023-02-11T05:38:15;101876.28;;;-5.11;81.40
10310;BME280;5200;43.236;27.986;2023-02-11T05:40:43;101846.34;;;-5.12;79.12
10310;BME280;5200;43.236;27.986;2023-02-11T05:43:09;101800.00;;;-5.45;78.38
10310;BME280;5200;43.236;27.986;2023-02-11T05:45:36;101844.69;;;-4.94;77.48
10310;BME280;5200;43.236;27.986;2023-02-11T05:48:03;101832.75;;;-4.89;77.01
10310;BME280;5200;43.236;27.986;2023-02-11T05:50:31;101849.97;;;-4.42;76.70
10310;BME280;5200;43.236;27.986;2023-02-11T05:52:58;101856.84;;;-4.07;75.88
10310;BME280;5200;43.236;27.986;2023-02-11T05:55:25;101849.13;;;-3.81;73.91
10310;BME280;5200;43.236;27.986;2023-02-11T05:57:52;101850.84;;;-3.72;72.82
10310;BME280;5200;43.236;27.986;2023-02-11T06:00:19;101875.66;;;-3.36;72.85
10310;BME280;5200;43.236;27.986;2023-02-11T06:02:46;101855.03;;;-3.22;72.92
10310;BME280;5200;43.236;27.986;2023-02-11T06:05:13;101878.03;;;-2.76;70.03
10310;BME280;5200;43.236;27.986;2023-02-11T06:07:41;101887.34;;;-2.50;67.32
10310;BME280;5200;43.236;27.986;2023-02-11T06:10:08;101884.72;;;-2.40;66.44
10310;BME280;5200;43.236;27.986;2023-02-11T06:12:36;101858.94;;;-2.43;63.96
10310;BME280;5200;43.236;27.986;2023-02-11T06:15:03;101881.97;;;-2.14;61.74
10310;BME280;5200;43.236;27.986;2023-02-11T06:17:30;101894.72;;;-1.95;61.83
10310;BME280;5200;43.236;27.986;2023-02-11T06:19:58;101850.75;;;-1.83;60.67
10310;BME280;5200;43.236;27.986;2023-02-11T06:22:25;101874.56;;;-1.50;57.84
10310;BME280;5200;43.236;27.986;2023-02-11T06:24:53;101881.19;;;-1.28;56.03
10310;BME280;5200;43.236;27.986;2023-02-11T06:27:20;101881.88;;;-1.12;53.40
10310;BME280;5200;43.236;27.986;2023-02-11T06:29:47;101855.09;;;-1.06;53.43
10310;BME280;5200;43.236;27.986;2023-02-11T06:32:16;101854.94;;;-0.91;53.84
10310;BME280;5200;43.236;27.986;2023-02-11T06:34:44;101865.97;;;-0.78;53.67
10310;BME280;5200;43.236;27.986;2023-02-11T06:37:11;101876.22;;;-0.72;54.42
10310;BME280;5200;43.236;27.986;2023-02-11T06:39:38;101885.69;;;-0.69;55.62
10310;BME280;5200;43.236;27.986;2023-02-11T06:42:07;101847.63;;;-0.59;56.20
10310;BME280;5200;43.236;27.986;2023-02-11T06:44:35;101832.03;;;-0.55;55.84
10310;BME280;5200;43.236;27.986;2023-02-11T06:47:02;101862.63;;;-0.24;51.19
10310;BME280;5200;43.236;27.986;2023-02-11T06:49:29;101841.22;;;-0.32;52.07
10310;BME280;5200;43.236;27.986;2023-02-11T06:51:55;101879.53;;;-0.02;53.14
10310;BME280;5200;43.236;27.986;2023-02-11T06:57:32;101873.91;;;0.26;52.76
10310;BME280;5200;43.236;27.986;2023-02-11T06:59:59;101863.41;;;0.35;52.80
10310;BME280;5200;43.236;27.986;2023-02-11T07:02:26;101871.78;;;0.50;49.93
10310;BME280;5200;43.236;27.986;2023-02-11T07:04:53;101857.16;;;0.47;49.97
10310;BME280;5200;43.236;27.986;2023-02-11T07:07:20;101836.22;;;0.58;50.27
10310;BME280;5200;43.236;27.986;2023-02-11T07:09:47;101854.84;;;0.78;50.02
10310;BME280;5200;43.236;27.986;2023-02-11T07:12:14;101833.97;;;0.39;47.72
10310;BME280;5200;43.236;27.986;2023-02-11T07:14:42;101848.00;;;0.74;44.29
10310;BME280;5200;43.236;27.986;2023-02-11T07:17:09;101808.63;;;0.57;47.80
10310;BME280;5200;43.236;27.986;2023-02-11T07:19:35;101848.72;;;0.82;48.29
10310;BME280;5200;43.236;27.986;2023-02-11T07:22:02;101836.13;;;1.06;44.19
10310;BME280;5200;43.236;27.986;2023-02-11T07:24:29;101832.06;;;1.35;43.46
10310;BME280;5200;43.236;27.986;2023-02-11T07:26:56;101830.66;;;1.57;42.13
10310;BME280;5200;43.236;27.986;2023-02-11T07:29:23;101864.25;;;2.01;41.28
10310;BME280;5200;43.236;27.986;2023-02-11T07:31:51;101841.00;;;1.96;41.74
10310;BME280;5200;43.236;27.986;2023-02-11T07:34:18;101836.81;;;2.25;43.19
10310;BME280;5200;43.236;27.986;2023-02-11T07:36:44;101845.69;;;2.50;40.81
10310;BME280;5200;43.236;27.986;2023-02-11T07:39:13;101814.28;;;2.58;39.83
10310;BME280;5200;43.236;27.986;2023-02-11T07:41:40;101821.69;;;2.72;37.51
10310;BME280;5200;43.236;27.986;2023-02-11T07:44:07;101840.69;;;2.74;37.86
10310;BME280;5200;43.236;27.986;2023-02-11T07:46:34;101840.31;;;2.88;37.87
10310;BME280;5200;43.236;27.986;2023-02-11T07:49:02;101799.38;;;2.65;38.69
10310;BME280;5200;43.236;27.986;2023-02-11T07:51:30;101819.28;;;2.95;38.27
10310;BME280;5200;43.236;27.986;2023-02-11T07:53:58;101799.28;;;2.68;38.23
10310;BME280;5200;43.236;27.986;2023-02-11T07:56:26;101804.94;;;2.82;39.01
10310;BME280;5200;43.236;27.986;2023-02-11T07:58:53;101818.22;;;3.03;38.40
10310;BME280;5200;43.236;27.986;2023-02-11T08:01:22;101807.00;;;3.01;39.80
10310;BME280;5200;43.236;27.986;2023-02-11T08:03:51;101828.50;;;3.35;39.90
10310;BME280;5200;43.236;27.986;2023-02-11T08:06:22;101834.53;;;3.37;38.97
10310;BME280;5200;43.236;27.986;2023-02-11T08:08:50;101828.22;;;3.45;40.46
10310;BME280;5200;43.236;27.986;2023-02-11T08:11:19;101817.44;;;3.29;39.93
10310;BME280;5200;43.236;27.986;2023-02-11T08:13:46;101813.38;;;3.20;40.12
10310;BME280;5200;43.236;27.986;2023-02-11T08:16:18;101824.63;;;3.21;40.73
10310;BME280;5200;43.236;27.986;2023-02-11T08:18:45;101775.00;;;2.99;40.51
10310;BME280;5200;43.236;27.986;2023-02-11T08:21:12;101793.28;;;3.25;40.11
10310;BME280;5200;43.236;27.986;2023-02-11T08:23:41;101788.28;;;3.46;40.61
10310;BME280;5200;43.236;27.986;2023-02-11T08:26:11;101810.13;;;3.68;39.95
10310;BME280;5200;43.236;27.986;2023-02-11T08:28:40;101776.75;;;3.54;40.86
10310;BME280;5200;43.236;27.986;2023-02-11T08:31:08;101808.88;;;3.80;39.81
10310;BME280;5200;43.236;27.986;2023-02-11T08:33:36;101812.28;;;3.82;39.64
10310;BME280;5200;43.236;27.986;2023-02-11T08:36:07;101785.59;;;3.75;39.66
10310;BME280;5200;43.236;27.986;2023-02-11T08:38:34;101783.03;;;3.74;39.37
10310;BME280;5200;43.236;27.986;2023-02-11T08:41:02;101797.06;;;3.96;39.00
10310;BME280;5200;43.236;27.986;2023-02-11T08:43:29;101783.81;;;3.77;38.59
10310;BME280;5200;43.236;27.986;2023-02-11T08:45:57;101782.50;;;3.64;39.86
10310;BME280;5200;43.236;27.986;2023-02-11T08:48:24;101782.56;;;3.63;40.49
10310;BME280;5200;43.236;27.986;2023-02-11T08:50:53;101793.13;;;3.85;39.91
10310;BME280;5200;43.236;27.986;2023-02-11T08:53:19;101789.28;;;3.95;39.84
10310;BME280;5200;43.236;27.986;2023-02-11T08:55:50;101787.94;;;3.83;39.69
10310;BME280;5200;43.236;27.986;2023-02-11T08:58:19;101790.06;;;3.98;39.19
10310;BME280;5200;43.236;27.986;2023-02-11T09:00:47;101762.88;;;3.80;39.95
10310;BME280;5200;43.236;27.986;2023-02-11T09:03:14;101782.56;;;4.14;39.30
10310;BME280;5200;43.236;27.986;2023-02-11T09:05:42;101758.31;;;4.12;40.21
10310;BME280;5200;43.236;27.986;2023-02-11T09:08:10;101744.03;;;4.24;38.43
10310;BME280;5200;43.236;27.986;2023-02-11T09:10:37;101775.59;;;4.40;38.92
10310;BME280;5200;43.236;27.986;2023-02-11T09:13:05;101749.41;;;4.19;38.45
10310;BME280;5200;43.236;27.986;2023-02-11T09:15:36;101756.44;;;4.16;39.01
10310;BME280;5200;43.236;27.986;2023-02-11T09:18:03;101721.66;;;3.93;39.61
10310;BME280;5200;43.236;27.986;2023-02-11T09:20:30;101731.28;;;4.16;40.21
10310;BME280;5200;43.236;27.986;2023-02-11T09:22:57;101750.84;;;4.52;40.04
10310;BME280;5200;43.236;27.986;2023-02-11T09:25:25;101743.63;;;4.58;39.42
10310;BME280;5200;43.236;27.986;2023-02-11T09:27:52;101756.25;;;4.71;40.16
10310;BME280;5200;43.236;27.986;2023-02-11T09:30:18;101728.09;;;4.79;39.90
10310;BME280;5200;43.236;27.986;2023-02-11T09:32:47;101754.09;;;5.04;39.75
10310;BME280;5200;43.236;27.986;2023-02-11T09:35:13;101716.91;;;4.99;39.98
10310;BME280;5200;43.236;27.986;2023-02-11T09:37:40;101734.19;;;5.23;39.96
10310;BME280;5200;43.236;27.986;2023-02-11T09:40:08;101730.69;;;5.24;38.43
10310;BME280;5200;43.236;27.986;2023-02-11T09:42:45;101724.22;;;5.33;39.02
10310;BME280;5200;43.236;27.986;2023-02-11T09:45:17;101731.47;;;5.48;38.52
10310;BME280;5200;43.236;27.986;2023-02-11T09:47:48;101702.50;;;5.33;38.45
10310;BME280;5200;43.236;27.986;2023-02-11T09:52:49;101687.13;;;5.47;38.50
10310;BME280;5200;43.236;27.986;2023-02-11T09:55:21;101686.41;;;5.43;37.27
10310;BME280;5200;43.236;27.986;2023-02-11T09:57:48;101679.75;;;5.36;37.32
10310;BME280;5200;43.236;27.986;2023-02-11T10:00:20;101711.28;;;5.52;38.07
10310;BME280;5200;43.236;27.986;2023-02-11T10:02:57;101710.56;;;5.69;38.46
10310;BME280;5200;43.236;27.986;2023-02-11T10:05:38;101683.03;;;5.82;38.40
10310;BME280;5200;43.236;27.986;2023-02-11T10:08:13;101689.91;;;6.05;37.18
10310;BME280;5200;43.236;27.986;2023-02-11T10:10:49;101662.06;;;5.84;37.08
10310;BME280;5200;43.236;27.986;2023-02-11T10:13:28;101689.84;;;6.07;35.93
10310;BME280;5200;43.236;27.986;2023-02-11T10:16:06;101682.50;;;6.15;36.13
10310;BME280;5200;43.236;27.986;2023-02-11T10:18:48;101671.13;;;6.16;33.99
10310;BME280;5200;43.236;27.986;2023-02-11T10:21:27;101669.03;;;6.24;34.91
10310;BME280;5200;43.236;27.986;2023-02-11T10:23:59;101666.38;;;6.05;35.44
10310;BME280;5200;43.236;27.986;2023-02-11T10:26:29;101636.66;;;5.87;37.70
10310;BME280;5200;43.236;27.986;2023-02-11T10:29:00;101631.31;;;5.90;37.48
10310;BME280;5200;43.236;27.986;2023-02-11T10:31:35;101639.00;;;6.14;37.77
10310;BME280;5200;43.236;27.986;2023-02-11T10:34:07;101664.84;;;6.39;35.99
10310;BME280;5200;43.236;27.986;2023-02-11T10:36:37;101631.38;;;6.28;36.76
10310;BME280;5200;43.236;27.986;2023-02-11T10:39:16;101653.41;;;6.42;35.14
10310;BME280;5200;43.236;27.986;2023-02-11T10:41:45;101646.34;;;6.25;35.12
10310;BME280;5200;43.236;27.986;2023-02-11T10:44:24;101598.81;;;5.98;35.89
10310;BME280;5200;43.236;27.986;2023-02-11T10:46:52;101634.47;;;6.37;35.52
10310;BME280;5200;43.236;27.986;2023-02-11T10:49:37;101619.34;;;6.24;33.94
10310;BME280;5200;43.236;27.986;2023-02-11T10:52:17;101602.94;;;6.02;35.62
10310;BME280;5200;43.236;27.986;2023-02-11T10:54:59;101629.97;;;6.21;36.34
10310;BME280;5200;43.236;27.986;2023-02-11T10:57:30;101609.94;;;6.01;35.28
10310;BME280;5200;43.236;27.986;2023-02-11T11:00:00;101607.13;;;5.85;35.14
10310;BME280;5200;43.236;27.986;2023-02-11T11:02:29;101604.91;;;5.76;36.75
10310;BME280;5200;43.236;27.986;2023-02-11T11:05:03;101581.56;;;5.73;37.16
10310;BME280;5200;43.236;27.986;2023-02-11T11:07:32;101605.59;;;5.81;36.86
10310;BME280;5200;43.236;27.986;2023-02-11T11:10:03;101596.69;;;5.85;36.32
10310;BME280;5200;43.236;27.986;2023-02-11T11:12:34;101596.09;;;5.99;36.81
10310;BME280;5200;43.236;27.986;2023-02-11T11:15:14;101588.84;;;6.06;36.34
10310;BME280;5200;43.236;27.986;2023-02-11T11:17:43;101556.28;;;5.94;37.72
10310;BME280;5200;43.236;27.986;2023-02-11T11:20:24;101580.72;;;6.12;37.16
10310;BME280;5200;43.236;27.986;2023-02-11T11:23:07;101574.34;;;5.99;36.87
10310;BME280;5200;43.236;27.986;2023-02-11T11:25:37;101583.19;;;6.15;36.24
10310;BME280;5200;43.236;27.986;2023-02-11T11:28:05;101554.63;;;5.91;36.50
10310;BME280;5200;43.236;27.986;2023-02-11T11:30:43;101555.16;;;6.00;36.48
10310;BME280;5200;43.236;27.986;2023-02-11T11:33:18;101547.72;;;5.90;36.91
10310;BME280;5200;43.236;27.986;2023-02-11T11:35:56;101549.16;;;5.98;37.01
10310;BME280;5200;43.236;27.986;2023-02-11T11:38:24;101567.66;;;6.12;36.08
10310;BME280;5200;43.236;27.986;2023-02-11T11:41:18;101536.88;;;6.00;34.22
10310;BME280;5200;43.236;27.986;2023-02-11T11:43:56;101557.22;;;5.91;34.94
10310;BME280;5200;43.236;27.986;2023-02-11T11:46:28;101521.28;;;5.59;35.42
10310;BME280;5200;43.236;27.986;2023-02-11T11:49:01;101544.69;;;5.41;33.86
10310;BME280;5200;43.236;27.986;2023-02-11T11:51:33;101521.44;;;5.15;35.54
10310;BME280;5200;43.236;27.986;2023-02-11T11:54:02;101534.88;;;5.26;36.85
10310;BME280;5200;43.236;27.986;2023-02-11T11:56:33;101537.69;;;5.42;37.23
10310;BME280;5200;43.236;27.986;2023-02-11T11:59:05;101518.97;;;5.32;37.62
10310;BME280;5200;43.236;27.986;2023-02-11T12:01:42;101525.63;;;5.39;37.28
10310;BME280;5200;43.236;27.986;2023-02-11T12:04:18;101509.56;;;5.28;38.42
10310;BME280;5200;43.236;27.986;2023-02-11T12:06:59;101522.06;;;5.40;37.68
10310;BME280;5200;43.236;27.986;2023-02-11T12:09:33;101495.34;;;5.15;38.72
10310;BME280;5200;43.236;27.986;2023-02-11T12:12:18;101515.44;;;5.13;39.53
10310;BME280;5200;43.236;27.986;2023-02-11T12:14:52;101501.56;;;5.12;40.85
10310;BME280;5200;43.236;27.986;2023-02-11T12:17:39;101501.63;;;5.11;40.83
10310;BME280;5200;43.236;27.986;2023-02-11T12:20:21;101478.31;;;4.87;41.87
10310;BME280;5200;43.236;27.986;2023-02-11T12:23:03;101470.59;;;4.84;42.65
10310;BME280;5200;43.236;27.986;2023-02-11T12:25:36;101462.47;;;4.92;43.58
10310;BME280;5200;43.236;27.986;2023-02-11T12:28:17;101491.59;;;5.01;44.67
10310;BME280;5200;43.236;27.986;2023-02-11T12:30:55;101461.72;;;4.88;42.51
10310;BME280;5200;43.236;27.986;2023-02-11T12:33:39;101467.72;;;4.90;42.65
10310;BME280;5200;43.236;27.986;2023-02-11T12:36:24;101467.72;;;4.90;42.94
10310;BME280;5200;43.236;27.986;2023-02-11T12:39:06;101466.81;;;4.91;43.73
10310;BME280;5200;43.236;27.986;2023-02-11T12:41:55;101484.63;;;5.02;45.41
10310;BME280;5200;43.236;27.986;2023-02-11T12:44:57;101476.84;;;5.00;44.60
10310;BME280;5200;43.236;27.986;2023-02-11T12:47:34;101462.84;;;4.82;44.11
10310;BME280;5200;43.236;27.986;2023-02-11T12:50:14;101472.88;;;4.92;43.44
10310;BME280;5200;43.236;27.986;2023-02-11T12:52:50;101485.00;;;4.93;43.55
10310;BME280;5200;43.236;27.986;2023-02-11T12:55:24;101460.28;;;4.81;42.88
10310;BME280;5200;43.236;27.986;2023-02-11T12:57:55;101443.84;;;4.79;42.78
10310;BME280;5200;43.236;27.986;2023-02-11T13:00:24;101467.59;;;4.93;43.50
10310;BME280;5200;43.236;27.986;2023-02-11T13:02:59;101443.06;;;4.77;44.55
10310;BME280;5200;43.236;27.986;2023-02-11T13:05:30;101462.94;;;4.79;44.20
10310;BME280;5200;43.236;27.986;2023-02-11T13:08:03;101468.91;;;4.83;44.13
10310;BME280;5200;43.236;27.986;2023-02-11T13:10:36;101466.53;;;4.77;44.42
10310;BME280;5200;43.236;27.986;2023-02-11T13:13:12;101439.22;;;4.44;44.53
10310;BME280;5200;43.236;27.986;2023-02-11T13:15:49;101428.13;;;4.39;43.47
10310;BME280;5200;43.236;27.986;2023-02-11T13:18:24;101420.63;;;4.32;43.82
10310;BME280;5200;43.236;27.986;2023-02-11T13:21:01;101454.47;;;4.54;43.59
10310;BME280;5200;43.236;27.986;2023-02-11T13:23:40;101455.44;;;4.51;44.38